Time,TemperatureF,DewpointF,PressureIn,WindDirection,WindDirectionDegrees,WindSpeedMPH,WindSpeedGustMPH,Humidity,HourlyPrecipIn,Conditions,Clouds,dailyrainin,SolarRadiationWatts/m^2,SoftwareType,DateUTC
2013-08-08 00:00:00,68.3,65.9,29.91,NNW,348,2.0,2.0,92,0.00,,,0.00,0,Wunderground v.1.15,2013-08-08 05:00:00,
2013-08-08 00:10:00,68.3,65.9,29.92,North,350,1.0,1.0,92,0.00,,,0.00,0,Wunderground v.1.15,2013-08-08 05:10:00,
2013-08-08 00:15:00,68.1,65.7,29.92,North,350,1.0,1.0,92,0.00,,,0.00,0,Wunderground v.1.15,2013-08-08 05:15:00,
2013-08-08 00:25:00,68.0,65.6,29.92,North,350,1.0,2.0,92,0.00,,,0.00,0,Wunderground v.1.15,2013-08-08 05:25:00,
2013-08-08 00:30:00,67.8,65.4,29.92,North,350,0.0,0.0,92,0.00,,,0.00,0,Wunderground v.1.15,2013-08-08 05:30:00,
2013-08-08 00:35:00,67.7,65.3,29.92,North,350,0.0,0.0,92,0.00,,,0.00,0,Wunderground v.1.15,2013-08-08 05:35:00,
2013-08-08 00:40:00,67.6,65.2,29.92,North,350,0.0,0.0,92,0.00,,,0.00,0,Wunderground v.1.15,2013-08-08 05:40:00,
2013-08-08 00:45:00,67.5,65.1,29.92,North,350,1.0,1.0,92,0.00,,,0.00,0,Wunderground v.1.15,2013-08-08 05:45:00,
2013-08-08 00:50:00,67.4,65.0,29.92,North,350,1.0,1.0,92,0.00,,,0.00,0,Wunderground v.1.15,2013-08-08 05:50:00,
2013-08-08 00:55:00,67.3,64.9,29.92,North,350,1.0,1.0,92,0.00,,,0.00,0,Wunderground v.1.15,2013-08-08 05:55:00,
2013-08-08 01:00:00,67.2,65.1,29.93,North,350,1.0,1.0,93,0.00,,,0.00,0,Wunderground v.1.15,2013-08-08 06:00:00,
2013-08-08 01:10:00,67.1,64.7,29.92,North,350,1.0,1.0,92,0.00,,,0.00,0,Wunderground v.1.15,2013-08-08 06:10:00,
2013-08-08 01:15:00,67.0,64.6,29.92,North,350,1.0,2.0,92,0.00,,,0.00,0,Wunderground v.1.15,2013-08-08 06:15:00,
2013-08-08 01:20:00,66.9,64.5,29.92,North,350,1.0,1.0,92,0.00,,,0.00,0,Wunderground v.1.15,2013-08-08 06:20:00,
2013-08-08 01:30:00,66.7,64.6,29.92,North,350,0.0,0.0,93,0.00,,,0.00,0,Wunderground v.1.15,2013-08-08 06:30:00,
2013-08-08 01:35:00,66.6,64.5,29.92,North,350,0.0,0.0,93,0.00,,,0.00,0,Wunderground v.1.15,2013-08-08 06:35:00,
2013-08-08 01:40:00,66.4,64.3,29.92,North,350,0.0,0.0,93,0.00,,,0.00,0,Wunderground v.1.15,2013-08-08 06:40:00,
2013-08-08 01:45:00,66.3,64.2,29.91,North,350,0.0,1.0,93,0.00,,,0.00,0,Wunderground v.1.15,2013-08-08 06:45:00,
2013-08-08 01:50:00,66.2,64.1,29.91,North,350,0.0,0.0,93,0.00,,,0.00,0,Wunderground v.1.15,2013-08-08 06:50:00,
2013-08-08 01:55:00,66.1,64.0,29.92,North,350,0.0,0.0,93,0.00,,,0.00,0,Wunderground v.1.15,2013-08-08 06:55:00,
2013-08-08 02:00:00,66.0,63.9,29.91,North,350,0.0,0.0,93,0.00,,,0.00,0,Wunderground v.1.15,2013-08-08 07:00:00,
2013-08-08 02:10:00,65.8,63.7,29.91,North,350,0.0,0.0,93,0.00,,,0.00,0,Wunderground v.1.15,2013-08-08 07:10:00,
2013-08-08 02:15:00,65.7,63.6,29.91,North,350,0.0,0.0,93,0.00,,,0.00,0,Wunderground v.1.15,2013-08-08 07:15:00,
2013-08-08 02:20:00,65.6,63.5,29.91,North,350,0.0,0.0,93,0.00,,,0.00,0,Wunderground v.1.15,2013-08-08 07:20:00,
2013-08-08 02:25:00,65.6,63.8,29.91,North,350,0.0,0.0,94,0.00,,,0.00,0,Wunderground v.1.15,2013-08-08 07:25:00,
2013-08-08 02:35:00,65.3,63.5,29.91,North,350,0.0,0.0,94,0.00,,,0.00,0,Wunderground v.1.15,2013-08-08 07:35:00,
2013-08-08 02:40:00,65.2,63.4,29.91,North,350,0.0,0.0,94,0.00,,,0.00,0,Wunderground v.1.15,2013-08-08 07:40:00,
2013-08-08 02:45:00,65.2,63.4,29.91,North,350,0.0,0.0,94,0.00,,,0.00,0,Wunderground v.1.15,2013-08-08 07:45:00,
2013-08-08 02:50:00,65.1,63.3,29.91,North,350,0.0,0.0,94,0.00,,,0.00,0,Wunderground v.1.15,2013-08-08 07:50:00,
2013-08-08 02:55:00,65.1,63.3,29.91,North,350,0.0,1.0,94,0.00,,,0.00,0,Wunderground v.1.15,2013-08-08 07:55:00,
2013-08-08 03:05:00,65.0,63.2,29.91,North,350,0.0,2.0,94,0.00,,,0.00,0,Wunderground v.1.15,2013-08-08 08:05:00,
2013-08-08 03:10:00,64.9,63.1,29.91,North,350,0.0,0.0,94,0.00,,,0.00,0,Wunderground v.1.15,2013-08-08 08:10:00,
2013-08-08 03:15:00,64.9,63.1,29.91,North,350,0.0,0.0,94,0.00,,,0.00,0,Wunderground v.1.15,2013-08-08 08:15:00,
2013-08-08 03:20:00,64.8,63.0,29.91,North,350,0.0,0.0,94,0.00,,,0.00,0,Wunderground v.1.15,2013-08-08 08:20:00,
2013-08-08 03:25:00,64.8,63.0,29.91,North,350,0.0,0.0,94,0.00,,,0.00,0,Wunderground v.1.15,2013-08-08 08:25:00,
2013-08-08 03:30:00,64.7,62.9,29.91,North,350,0.0,0.0,94,0.00,,,0.00,0,Wunderground v.1.15,2013-08-08 08:30:00,
2013-08-08 03:40:00,64.5,62.7,29.92,North,350,0.0,0.0,94,0.00,,,0.00,0,Wunderground v.1.15,2013-08-08 08:40:00,
2013-08-08 03:45:00,64.5,62.7,29.92,North,350,0.0,1.0,94,0.00,,,0.00,0,Wunderground v.1.15,2013-08-08 08:45:00,
2013-08-08 03:50:00,64.4,62.6,29.92,North,350,0.0,2.0,94,0.00,,,0.00,0,Wunderground v.1.15,2013-08-08 08:50:00,
2013-08-08 03:55:00,64.3,62.5,29.91,North,350,0.0,2.0,94,0.00,,,0.00,0,Wunderground v.1.15,2013-08-08 08:55:00,
2013-08-08 04:00:00,64.3,62.8,29.91,North,350,0.0,0.0,95,0.00,,,0.00,0,Wunderground v.1.15,2013-08-08 09:00:00,
2013-08-08 04:05:00,64.3,62.8,29.91,North,350,0.0,1.0,95,0.00,,,0.00,0,Wunderground v.1.15,2013-08-08 09:05:00,
2013-08-08 04:10:00,64.3,62.8,29.91,North,350,0.0,0.0,95,0.00,,,0.00,0,Wunderground v.1.15,2013-08-08 09:10:00,
2013-08-08 04:15:00,64.2,62.7,29.91,North,350,0.0,0.0,95,0.00,,,0.00,0,Wunderground v.1.15,2013-08-08 09:15:00,
2013-08-08 04:20:00,64.2,62.7,29.91,North,350,0.0,2.0,95,0.00,,,0.00,0,Wunderground v.1.15,2013-08-08 09:20:00,
2013-08-08 04:25:00,64.1,62.6,29.91,North,350,0.0,2.0,95,0.00,,,0.00,0,Wunderground v.1.15,2013-08-08 09:25:00,
2013-08-08 04:30:00,64.0,62.5,29.91,North,350,0.0,2.0,95,0.00,,,0.00,0,Wunderground v.1.15,2013-08-08 09:30:00,
2013-08-08 04:35:00,64.0,62.5,29.91,North,350,0.0,2.0,95,0.00,,,0.00,0,Wunderground v.1.15,2013-08-08 09:35:00,
2013-08-08 04:45:00,63.8,62.3,29.91,North,350,0.0,0.0,95,0.00,,,0.00,0,Wunderground v.1.15,2013-08-08 09:45:00,
2013-08-08 04:50:00,63.7,62.2,29.91,North,350,0.0,0.0,95,0.00,,,0.00,0,Wunderground v.1.15,2013-08-08 09:50:00,
2013-08-08 04:55:00,63.7,62.2,29.91,North,350,0.0,0.0,95,0.00,,,0.00,0,Wunderground v.1.15,2013-08-08 09:55:00,
2013-08-08 05:00:00,63.6,62.1,29.91,North,350,0.0,0.0,95,0.00,,,0.00,0,Wunderground v.1.15,2013-08-08 10:00:00,
2013-08-08 05:05:00,63.5,62.0,29.91,North,350,0.0,0.0,95,0.00,,,0.00,0,Wunderground v.1.15,2013-08-08 10:05:00,
2013-08-08 05:15:00,63.3,61.8,29.91,North,350,0.0,0.0,95,0.00,,,0.00,0,Wunderground v.1.15,2013-08-08 10:15:00,
2013-08-08 05:20:00,63.2,61.7,29.91,North,350,0.0,0.0,95,0.00,,,0.00,0,Wunderground v.1.15,2013-08-08 10:20:00,
2013-08-08 05:25:00,63.1,61.6,29.90,North,350,0.0,0.0,95,0.00,,,0.00,0,Wunderground v.1.15,2013-08-08 10:25:00,
2013-08-08 05:30:00,63.0,61.5,29.90,North,350,0.0,0.0,95,0.00,,,0.00,0,Wunderground v.1.15,2013-08-08 10:30:00,
2013-08-08 05:35:00,62.9,61.4,29.90,North,350,0.0,0.0,95,0.00,,,0.00,0,Wunderground v.1.15,2013-08-08 10:35:00,
2013-08-08 05:40:00,62.9,61.4,29.90,North,350,0.0,0.0,95,0.00,,,0.00,0,Wunderground v.1.15,2013-08-08 10:40:00,
2013-08-08 05:50:00,62.9,61.4,29.90,North,350,0.0,0.0,95,0.00,,,0.00,0,Wunderground v.1.15,2013-08-08 10:50:00,
2013-08-08 05:55:00,62.9,61.7,29.90,North,350,0.0,0.0,96,0.00,,,0.00,0,Wunderground v.1.15,2013-08-08 10:55:00,
2013-08-08 06:00:00,62.9,61.7,29.91,North,350,0.0,0.0,96,0.00,,,0.00,0,Wunderground v.1.15,2013-08-08 11:00:00,
2013-08-08 06:05:00,62.8,61.6,29.91,North,350,0.0,0.0,96,0.00,,,0.00,0,Wunderground v.1.15,2013-08-08 11:05:00,
2013-08-08 06:10:00,62.8,61.6,29.91,North,350,0.0,0.0,96,0.00,,,0.00,5,Wunderground v.1.15,2013-08-08 11:10:00,
2013-08-08 06:20:00,62.9,61.7,29.92,North,350,0.0,0.0,96,0.00,,,0.00,12,Wunderground v.1.15,2013-08-08 11:20:00,
2013-08-08 06:25:00,62.9,61.7,29.92,North,350,0.0,0.0,96,0.00,,,0.00,19,Wunderground v.1.15,2013-08-08 11:25:00,
2013-08-08 06:30:00,62.9,61.7,29.92,North,350,0.0,0.0,96,0.00,,,0.00,28,Wunderground v.1.15,2013-08-08 11:30:00,
2013-08-08 06:35:00,62.9,61.7,29.92,North,350,0.0,0.0,96,0.00,,,0.00,33,Wunderground v.1.15,2013-08-08 11:35:00,
2013-08-08 06:40:00,63.0,61.8,29.93,North,350,0.0,0.0,96,0.00,,,0.00,46,Wunderground v.1.15,2013-08-08 11:40:00,
2013-08-08 06:45:00,63.1,61.9,29.93,North,350,0.0,0.0,96,0.00,,,0.00,49,Wunderground v.1.15,2013-08-08 11:45:00,
2013-08-08 06:55:00,63.4,62.2,29.93,North,350,0.0,0.0,96,0.00,,,0.00,83,Wunderground v.1.15,2013-08-08 11:55:00,
2013-08-08 07:00:00,63.6,62.7,29.93,North,350,0.0,0.0,97,0.00,,,0.00,97,Wunderground v.1.15,2013-08-08 12:00:00,
2013-08-08 07:05:00,63.8,62.9,29.93,North,350,0.0,0.0,97,0.00,,,0.00,100,Wunderground v.1.15,2013-08-08 12:05:00,
2013-08-08 07:10:00,64.1,63.2,29.94,North,350,0.0,0.0,97,0.00,,,0.00,104,Wunderground v.1.15,2013-08-08 12:10:00,
2013-08-08 07:15:00,64.3,63.4,29.94,North,350,0.0,0.0,97,0.00,,,0.00,149,Wunderground v.1.15,2013-08-08 12:15:00,
2013-08-08 07:25:00,64.8,63.9,29.93,North,350,0.0,0.0,97,0.00,,,0.00,120,Wunderground v.1.15,2013-08-08 12:25:00,
2013-08-08 07:30:00,65.2,64.3,29.93,North,350,0.0,2.0,97,0.00,,,0.00,188,Wunderground v.1.15,2013-08-08 12:30:00,
2013-08-08 07:35:00,65.7,64.8,29.93,North,350,0.0,2.0,97,0.00,,,0.00,185,Wunderground v.1.15,2013-08-08 12:35:00,
2013-08-08 07:40:00,66.2,65.0,29.93,North,350,1.0,2.0,96,0.00,,,0.00,218,Wunderground v.1.15,2013-08-08 12:40:00,
2013-08-08 07:45:00,66.7,65.5,29.93,North,350,2.0,2.0,96,0.00,,,0.00,230,Wunderground v.1.15,2013-08-08 12:45:00,
2013-08-08 07:50:00,67.1,65.6,29.93,North,355,2.0,2.0,95,0.00,,,0.00,253,Wunderground v.1.15,2013-08-08 12:50:00,
2013-08-08 08:00:00,68.1,66.0,29.93,North,355,2.0,2.0,93,0.00,,,0.00,278,Wunderground v.1.15,2013-08-08 13:00:00,
2013-08-08 08:05:00,68.6,66.2,29.93,North,360,2.0,2.0,92,0.00,,,0.00,281,Wunderground v.1.15,2013-08-08 13:05:00,
2013-08-08 08:10:00,68.9,65.5,29.93,NE,40,3.0,3.0,89,0.00,,,0.00,306,Wunderground v.1.15,2013-08-08 13:10:00,
2013-08-08 08:15:00,69.2,65.5,29.93,NE,46,3.0,3.0,88,0.00,,,0.00,318,Wunderground v.1.15,2013-08-08 13:15:00,
2013-08-08 08:20:00,69.5,65.8,29.93,ENE,71,3.0,4.0,88,0.00,,,0.00,320,Wunderground v.1.15,2013-08-08 13:20:00,
2013-08-08 08:30:00,70.1,66.0,29.94,ENE,67,3.0,4.0,87,0.00,,,0.00,334,Wunderground v.1.15,2013-08-08 13:30:00,
2013-08-08 08:35:00,70.4,66.3,29.94,ENE,70,3.0,4.0,87,0.00,,,0.00,364,Wunderground v.1.15,2013-08-08 13:35:00,
2013-08-08 08:40:00,70.7,66.3,29.94,ENE,73,3.0,3.0,86,0.00,,,0.00,257,Wunderground v.1.15,2013-08-08 13:40:00,
2013-08-08 08:45:00,70.8,66.4,29.94,ENE,78,4.0,4.0,86,0.00,,,0.00,466,Wunderground v.1.15,2013-08-08 13:45:00,
2013-08-08 08:50:00,71.1,66.4,29.94,ENE,76,4.0,4.0,85,0.00,,,0.00,376,Wunderground v.1.15,2013-08-08 13:50:00,
2013-08-08 08:55:00,71.1,66.0,29.94,ENE,78,4.0,4.0,84,0.00,,,0.00,436,Wunderground v.1.15,2013-08-08 13:55:00,
2013-08-08 09:05:00,71.5,66.4,29.94,East,81,4.0,5.0,84,0.00,,,0.00,410,Wunderground v.1.15,2013-08-08 14:05:00,
2013-08-08 09:10:00,71.7,66.3,29.94,East,80,5.0,5.0,83,0.00,,,0.00,497,Wunderground v.1.15,2013-08-08 14:10:00,
2013-08-08 09:15:00,72.1,66.6,29.94,East,82,5.0,5.0,83,0.00,,,0.00,541,Wunderground v.1.15,2013-08-08 14:15:00,
2013-08-08 09:20:00,72.5,67.0,29.93,ENE,78,4.0,6.0,83,0.00,,,0.00,573,Wunderground v.1.15,2013-08-08 14:20:00,
2013-08-08 09:25:00,72.8,67.3,29.93,East,93,5.0,6.0,83,0.00,,,0.00,606,Wunderground v.1.15,2013-08-08 14:25:00,
2013-08-08 09:35:00,73.1,66.9,29.94,East,94,5.0,7.0,81,0.00,,,0.00,654,Wunderground v.1.15,2013-08-08 14:35:00,
2013-08-08 09:40:00,73.4,67.6,29.94,East,92,5.0,5.0,82,0.00,,,0.00,506,Wunderground v.1.15,2013-08-08 14:40:00,
2013-08-08 09:45:00,73.7,67.5,29.94,East,96,5.0,5.0,81,0.00,,,0.00,492,Wunderground v.1.15,2013-08-08 14:45:00,
2013-08-08 09:50:00,73.6,67.4,29.94,East,86,6.0,6.0,81,0.00,,,0.00,436,Wunderground v.1.15,2013-08-08 14:50:00,
2013-08-08 09:55:00,73.8,67.2,29.94,East,86,5.0,6.0,80,0.00,,,0.00,473,Wunderground v.1.15,2013-08-08 14:55:00,
2013-08-08 10:00:00,73.9,67.3,29.95,East,88,4.0,6.0,80,0.00,,,0.00,578,Wunderground v.1.15,2013-08-08 15:00:00,
2013-08-08 10:05:00,74.1,67.5,29.95,East,88,4.0,6.0,80,0.00,,,0.00,489,Wunderground v.1.15,2013-08-08 15:05:00,
2013-08-08 10:10:00,74.2,66.9,29.95,East,89,4.0,8.0,78,0.00,,,0.00,452,Wunderground v.1.15,2013-08-08 15:10:00,
2013-08-08 10:15:00,74.3,67.4,29.95,East,97,5.0,8.0,79,0.00,,,0.00,385,Wunderground v.1.15,2013-08-08 15:15:00,
2013-08-08 10:20:00,74.3,67.0,29.95,East,100,6.0,6.0,78,0.00,,,0.00,455,Wunderground v.1.15,2013-08-08 15:20:00,
2013-08-08 10:25:00,74.3,67.0,29.95,ESE,103,6.0,6.0,78,0.00,,,0.00,431,Wunderground v.1.15,2013-08-08 15:25:00,
2013-08-08 10:30:00,74.4,67.5,29.95,ESE,105,6.0,6.0,79,0.00,,,0.00,464,Wunderground v.1.15,2013-08-08 15:30:00,
2013-08-08 10:40:00,74.8,67.5,29.96,ESE,105,5.0,5.0,78,0.00,,,0.00,603,Wunderground v.1.15,2013-08-08 15:40:00,
2013-08-08 10:45:00,75.1,67.8,29.96,ESE,105,5.0,5.0,78,0.00,,,0.00,552,Wunderground v.1.15,2013-08-08 15:45:00,
2013-08-08 10:50:00,75.3,67.2,29.97,ESE,105,4.0,4.0,76,0.00,,,0.00,510,Wunderground v.1.15,2013-08-08 15:50:00,
2013-08-08 10:55:00,75.6,68.6,29.97,ESE,105,3.0,4.0,79,0.00,,,0.00,489,Wunderground v.1.15,2013-08-08 15:55:00,
2013-08-08 11:00:00,75.7,67.6,29.97,ESE,104,3.0,5.0,76,0.00,,,0.00,492,Wunderground v.1.15,2013-08-08 16:00:00,
2013-08-08 11:10:00,76.0,67.9,29.97,ESE,103,3.0,3.0,76,0.00,,,0.00,621,Wunderground v.1.15,2013-08-08 16:10:00,
2013-08-08 11:15:00,76.2,68.1,29.96,ESE,103,2.0,3.0,76,0.00,,,0.00,777,Wunderground v.1.15,2013-08-08 16:15:00,
2013-08-08 11:20:00,76.5,69.1,29.96,ESE,103,1.0,1.0,78,0.00,,,0.00,422,Wunderground v.1.15,2013-08-08 16:20:00,
2013-08-08 11:25:00,76.6,68.1,29.95,ESE,103,1.0,3.0,75,0.00,,,0.00,427,Wunderground v.1.15,2013-08-08 16:25:00,
2013-08-08 11:30:00,76.5,68.7,29.96,ESE,103,2.0,2.0,77,0.00,,,0.00,471,Wunderground v.1.15,2013-08-08 16:30:00,
2013-08-08 11:40:00,76.8,69.0,29.95,ESE,103,1.0,2.0,77,0.00,,,0.00,638,Wunderground v.1.15,2013-08-08 16:40:00,
2013-08-08 11:45:00,77.0,69.2,29.95,ESE,103,2.0,3.0,77,0.00,,,0.00,610,Wunderground v.1.15,2013-08-08 16:45:00,
2013-08-08 11:50:00,77.0,68.5,29.95,ESE,103,2.0,2.0,75,0.00,,,0.00,647,Wunderground v.1.15,2013-08-08 16:50:00,
2013-08-08 11:55:00,77.2,69.0,29.95,ESE,103,2.0,2.0,76,0.00,,,0.00,679,Wunderground v.1.15,2013-08-08 16:55:00,
2013-08-08 12:00:00,77.4,69.2,29.94,ESE,103,2.0,2.0,76,0.00,,,0.00,724,Wunderground v.1.15,2013-08-08 17:00:00,
2013-08-08 12:10:00,77.6,69.0,29.94,ESE,103,2.0,2.0,75,0.00,,,0.00,438,Wunderground v.1.15,2013-08-08 17:10:00,
2013-08-08 12:20:00,77.3,68.4,29.94,ESE,103,2.0,4.0,74,0.00,,,0.00,408,Wunderground v.1.15,2013-08-08 17:20:00,
2013-08-08 12:25:00,77.2,69.4,29.94,ESE,103,1.0,4.0,77,0.00,,,0.00,512,Wunderground v.1.15,2013-08-08 17:25:00,
2013-08-08 12:30:00,77.4,70.0,29.94,ESE,103,1.0,1.0,78,0.00,,,0.00,635,Wunderground v.1.15,2013-08-08 17:30:00,
2013-08-08 12:35:00,77.4,69.2,29.94,ESE,103,2.0,3.0,76,0.00,,,0.00,677,Wunderground v.1.15,2013-08-08 17:35:00,
2013-08-08 12:40:00,77.7,69.9,29.93,ESE,103,2.0,2.0,77,0.00,,,0.00,803,Wunderground v.1.15,2013-08-08 17:40:00,
2013-08-08 12:45:00,78.0,69.4,29.93,East,96,2.0,3.0,75,0.00,,,0.00,786,Wunderground v.1.15,2013-08-08 17:45:00,
2013-08-08 12:55:00,78.3,70.1,29.93,East,96,2.0,3.0,76,0.00,,,0.00,765,Wunderground v.1.15,2013-08-08 17:55:00,
2013-08-08 13:00:00,78.4,69.8,29.92,East,96,3.0,4.0,75,0.00,,,0.00,772,Wunderground v.1.15,2013-08-08 18:00:00,
2013-08-08 13:05:00,78.3,69.3,29.92,East,96,3.0,4.0,74,0.00,,,0.00,898,Wunderground v.1.15,2013-08-08 18:05:00,
2013-08-08 13:10:00,78.7,70.9,29.92,East,96,2.0,2.0,77,0.00,,,0.00,881,Wunderground v.1.15,2013-08-08 18:10:00,
2013-08-08 13:15:00,78.8,69.0,29.92,East,93,3.0,3.0,72,0.00,,,0.00,802,Wunderground v.1.15,2013-08-08 18:15:00,
2013-08-08 13:20:00,78.6,69.6,29.92,East,93,3.0,3.0,74,0.00,,,0.00,742,Wunderground v.1.15,2013-08-08 18:20:00,
2013-08-08 13:25:00,78.3,69.7,29.92,East,94,3.0,3.0,75,0.00,,,0.00,793,Wunderground v.1.15,2013-08-08 18:25:00,
2013-08-08 13:30:00,78.3,69.7,29.92,East,94,4.0,4.0,75,0.00,,,0.00,621,Wunderground v.1.15,2013-08-08 18:30:00,
2013-08-08 13:35:00,78.3,70.1,29.92,East,93,3.0,4.0,76,0.00,,,0.00,594,Wunderground v.1.15,2013-08-08 18:35:00,
2013-08-08 13:40:00,78.5,69.5,29.92,East,93,2.0,3.0,74,0.00,,,0.00,810,Wunderground v.1.15,2013-08-08 18:40:00,
2013-08-08 13:45:00,78.7,69.7,29.92,East,93,2.0,4.0,74,0.00,,,0.00,724,Wunderground v.1.15,2013-08-08 18:45:00,
2013-08-08 13:50:00,78.9,69.5,29.91,East,92,2.0,4.0,73,0.00,,,0.00,649,Wunderground v.1.15,2013-08-08 18:50:00,
2013-08-08 14:00:00,79.3,70.7,29.92,ENE,74,2.0,2.0,75,0.00,,,0.00,601,Wunderground v.1.15,2013-08-08 19:00:00,
2013-08-08 14:05:00,79.4,69.6,29.92,ENE,74,1.0,4.0,72,0.00,,,0.00,422,Wunderground v.1.15,2013-08-08 19:05:00,
2013-08-08 14:10:00,79.3,70.3,29.92,ENE,74,3.0,5.0,74,0.00,,,0.00,868,Wunderground v.1.15,2013-08-08 19:10:00,
2013-08-08 14:15:00,79.3,69.5,29.92,ENE,78,4.0,5.0,72,0.00,,,0.00,851,Wunderground v.1.15,2013-08-08 19:15:00,
2013-08-08 14:20:00,79.5,70.1,29.92,East,81,3.0,3.0,73,0.00,,,0.00,571,Wunderground v.1.15,2013-08-08 19:20:00,
2013-08-08 14:30:00,79.8,70.0,29.91,East,82,3.0,3.0,72,0.00,,,0.00,538,Wunderground v.1.15,2013-08-08 19:30:00,
2013-08-08 14:35:00,79.7,70.3,29.91,East,79,3.0,3.0,73,0.00,,,0.00,404,Wunderground v.1.15,2013-08-08 19:35:00,
2013-08-08 14:40:00,79.6,70.2,29.91,East,79,2.0,2.0,73,0.00,,,0.00,506,Wunderground v.1.15,2013-08-08 19:40:00,
2013-08-08 14:45:00,79.8,71.2,29.91,East,79,2.0,2.0,75,0.00,,,0.00,540,Wunderground v.1.15,2013-08-08 19:45:00,
2013-08-08 14:50:00,79.9,70.5,29.91,ENE,78,2.0,2.0,73,0.00,,,0.00,531,Wunderground v.1.15,2013-08-08 19:50:00,
2013-08-08 14:55:00,79.9,70.1,29.91,ENE,77,2.0,2.0,72,0.00,,,0.00,592,Wunderground v.1.15,2013-08-08 19:55:00,
2013-08-08 15:00:00,80.1,71.5,29.91,ENE,76,2.0,2.0,75,0.00,,,0.00,554,Wunderground v.1.15,2013-08-08 20:00:00,
2013-08-08 15:10:00,80.7,71.6,29.90,ENE,62,2.0,3.0,74,0.00,,,0.00,1155,Wunderground v.1.15,2013-08-08 20:10:00,
2013-08-08 15:15:00,80.9,71.0,29.90,NE,56,3.0,4.0,72,0.00,,,0.00,517,Wunderground v.1.15,2013-08-08 20:15:00,
2013-08-08 15:20:00,80.9,70.6,29.90,ENE,59,2.0,4.0,71,0.00,,,0.00,568,Wunderground v.1.15,2013-08-08 20:20:00,
2013-08-08 15:25:00,80.8,70.9,29.90,NE,55,2.0,4.0,72,0.00,,,0.00,550,Wunderground v.1.15,2013-08-08 20:25:00,
2013-08-08 15:30:00,80.8,70.1,29.91,NE,56,2.0,3.0,70,0.00,,,0.00,420,Wunderground v.1.15,2013-08-08 20:30:00,
2013-08-08 15:40:00,80.5,71.0,29.91,NE,56,1.0,1.0,73,0.00,,,0.00,381,Wunderground v.1.15,2013-08-08 20:40:00,
2013-08-08 15:45:00,80.5,70.2,29.91,NE,56,1.0,4.0,71,0.00,,,0.00,441,Wunderground v.1.15,2013-08-08 20:45:00,
2013-08-08 15:50:00,80.3,70.0,29.91,NE,56,1.0,2.0,71,0.00,,,0.00,427,Wunderground v.1.15,2013-08-08 20:50:00,
2013-08-08 15:55:00,80.1,69.8,29.91,NE,56,1.0,2.0,71,0.00,,,0.00,580,Wunderground v.1.15,2013-08-08 20:55:00,
2013-08-08 16:00:00,80.4,70.5,29.91,NE,55,2.0,2.0,72,0.00,,,0.00,536,Wunderground v.1.15,2013-08-08 21:00:00,
2013-08-08 16:05:00,80.6,70.7,29.91,NE,55,1.0,2.0,72,0.00,,,0.00,520,Wunderground v.1.15,2013-08-08 21:05:00,
2013-08-08 16:10:00,80.7,70.4,29.91,NE,54,1.0,3.0,71,0.00,,,0.00,315,Wunderground v.1.15,2013-08-08 21:10:00,
2013-08-08 16:15:00,80.7,70.4,29.91,NE,54,1.0,3.0,71,0.00,,,0.00,294,Wunderground v.1.15,2013-08-08 21:15:00,
2013-08-08 16:20:00,80.6,70.7,29.91,NE,54,1.0,3.0,72,0.00,,,0.00,318,Wunderground v.1.15,2013-08-08 21:20:00,
2013-08-08 16:25:00,80.2,70.4,29.92,NE,53,2.0,3.0,72,0.00,,,0.00,323,Wunderground v.1.15,2013-08-08 21:25:00,
2013-08-08 16:30:00,80.1,70.7,29.91,NE,53,1.0,1.0,73,0.00,,,0.00,288,Wunderground v.1.15,2013-08-08 21:30:00,
2013-08-08 16:40:00,79.6,70.2,29.92,NE,53,2.0,2.0,73,0.00,,,0.00,288,Wunderground v.1.15,2013-08-08 21:40:00,
2013-08-08 16:45:00,79.5,70.5,29.92,NE,53,2.0,2.0,74,0.00,,,0.00,274,Wunderground v.1.15,2013-08-08 21:45:00,
2013-08-08 16:50:00,79.5,70.5,29.92,NE,53,1.0,1.0,74,0.00,,,0.00,262,Wunderground v.1.15,2013-08-08 21:50:00,
2013-08-08 16:55:00,79.5,71.3,29.92,NE,53,0.0,1.0,76,0.00,,,0.00,262,Wunderground v.1.15,2013-08-08 21:55:00,
2013-08-08 17:00:00,79.5,70.9,29.92,NE,53,0.0,2.0,75,0.00,,,0.00,271,Wunderground v.1.15,2013-08-08 22:00:00,
2013-08-08 17:05:00,79.4,70.4,29.93,NE,53,1.0,2.0,74,0.00,,,0.00,258,Wunderground v.1.15,2013-08-08 22:05:00,
2013-08-08 17:15:00,79.4,71.2,29.93,NE,53,1.0,1.0,76,0.00,,,0.00,202,Wunderground v.1.15,2013-08-08 22:15:00,
2013-08-08 17:20:00,79.2,70.6,29.93,NE,53,1.0,1.0,75,0.00,,,0.00,156,Wunderground v.1.15,2013-08-08 22:20:00,
2013-08-08 17:25:00,78.9,70.3,29.93,NE,53,1.0,1.0,75,0.00,,,0.00,127,Wunderground v.1.15,2013-08-08 22:25:00,
2013-08-08 17:30:00,78.7,70.1,29.93,NE,53,1.0,1.0,75,0.00,,,0.00,118,Wunderground v.1.15,2013-08-08 22:30:00,
2013-08-08 17:35:00,78.5,70.3,29.93,NE,53,0.0,1.0,76,0.00,,,0.00,128,Wunderground v.1.15,2013-08-08 22:35:00,
2013-08-08 17:40:00,78.4,70.2,29.93,NE,53,0.0,0.0,76,0.00,,,0.00,148,Wunderground v.1.15,2013-08-08 22:40:00,
2013-08-08 17:45:00,78.2,70.0,29.93,NE,53,0.0,2.0,76,0.00,,,0.00,167,Wunderground v.1.15,2013-08-08 22:45:00,
2013-08-08 17:55:00,78.0,70.2,29.92,NE,53,0.0,1.0,77,0.00,,,0.00,209,Wunderground v.1.15,2013-08-08 22:55:00,
2013-08-08 18:00:00,77.9,70.1,29.92,NE,53,1.0,1.0,77,0.00,,,0.00,213,Wunderground v.1.15,2013-08-08 23:00:00,
2013-08-08 18:05:00,77.9,70.5,29.92,NE,53,1.0,2.0,78,0.00,,,0.00,183,Wunderground v.1.15,2013-08-08 23:05:00,
2013-08-08 18:15:00,77.8,70.4,29.93,NE,53,1.0,3.0,78,0.00,,,0.00,130,Wunderground v.1.15,2013-08-08 23:15:00,
2013-08-08 18:20:00,77.7,70.3,29.92,NE,53,1.0,1.0,78,0.00,,,0.00,91,Wunderground v.1.15,2013-08-08 23:20:00,
2013-08-08 18:30:00,77.5,70.1,29.92,NE,53,0.0,0.0,78,0.00,,,0.00,84,Wunderground v.1.15,2013-08-08 23:30:00,
2013-08-08 18:35:00,77.4,70.0,29.92,NE,53,0.0,0.0,78,0.00,,,0.00,72,Wunderground v.1.15,2013-08-08 23:35:00,
2013-08-08 18:40:00,77.3,70.3,29.92,NE,53,0.0,0.0,79,0.00,,,0.00,62,Wunderground v.1.15,2013-08-08 23:40:00,
2013-08-08 18:45:00,77.2,70.2,29.92,NE,53,0.0,0.0,79,0.00,,,0.00,60,Wunderground v.1.15,2013-08-08 23:45:00,
2013-08-08 18:55:00,76.9,70.3,29.92,NE,53,0.0,0.0,80,0.00,,,0.00,74,Wunderground v.1.15,2013-08-08 23:55:00,
2013-08-08 19:10:00,76.6,70.3,29.93,NE,53,0.0,0.0,81,0.00,,,0.00,56,Wunderground v.1.15,2013-08-09 00:10:00,
2013-08-08 19:15:00,76.4,70.5,29.93,NE,53,0.0,0.0,82,0.00,,,0.00,44,Wunderground v.1.15,2013-08-09 00:15:00,
2013-08-08 19:20:00,76.3,70.4,29.93,NE,53,0.0,0.0,82,0.00,,,0.00,39,Wunderground v.1.15,2013-08-09 00:20:00,
2013-08-08 19:25:00,76.2,70.3,29.93,NE,53,0.0,0.0,82,0.00,,,0.00,42,Wunderground v.1.15,2013-08-09 00:25:00,
2013-08-08 19:30:00,76.0,70.1,29.93,NE,53,0.0,0.0,82,0.00,,,0.00,32,Wunderground v.1.15,2013-08-09 00:30:00,
2013-08-08 19:45:00,75.5,70.0,29.93,NE,53,0.0,0.0,83,0.00,,,0.00,16,Wunderground v.1.15,2013-08-09 00:45:00,
2013-08-08 19:50:00,75.3,69.8,29.93,NE,53,0.0,0.0,83,0.00,,,0.00,11,Wunderground v.1.15,2013-08-09 00:50:00,
2013-08-08 20:10:00,74.6,69.1,29.93,NE,53,0.0,0.0,83,0.00,,,0.00,0,Wunderground v.1.15,2013-08-09 01:10:00,
2013-08-08 20:15:00,74.4,68.9,29.93,NE,53,0.0,0.0,83,0.00,,,0.00,0,Wunderground v.1.15,2013-08-09 01:15:00,
2013-08-08 20:20:00,74.3,68.8,29.93,NE,53,0.0,0.0,83,0.00,,,0.00,0,Wunderground v.1.15,2013-08-09 01:20:00,
2013-08-08 20:25:00,74.1,69.0,29.93,NE,53,0.0,0.0,84,0.00,,,0.00,0,Wunderground v.1.15,2013-08-09 01:25:00,
2013-08-08 20:30:00,74.0,69.2,29.93,NE,53,0.0,0.0,85,0.00,,,0.00,0,Wunderground v.1.15,2013-08-09 01:30:00,
2013-08-08 20:35:00,74.0,69.5,29.93,NE,53,0.0,0.0,86,0.00,,,0.00,0,Wunderground v.1.15,2013-08-09 01:35:00,
2013-08-08 20:40:00,73.8,69.3,29.93,NE,53,0.0,0.0,86,0.00,,,0.00,0,Wunderground v.1.15,2013-08-09 01:40:00,
2013-08-08 20:45:00,73.6,69.2,29.93,NE,53,0.0,0.0,86,0.00,,,0.00,0,Wunderground v.1.15,2013-08-09 01:45:00,
2013-08-08 21:00:00,72.9,68.5,29.93,NE,53,0.0,0.0,86,0.00,,,0.00,0,Wunderground v.1.15,2013-08-09 02:00:00,
2013-08-08 21:10:00,72.6,68.5,29.93,NE,53,0.0,0.0,87,0.00,,,0.00,0,Wunderground v.1.15,2013-08-09 02:10:00,
2013-08-08 21:15:00,72.4,68.3,29.93,NE,53,0.0,0.0,87,0.00,,,0.00,0,Wunderground v.1.15,2013-08-09 02:15:00,
2013-08-08 21:20:00,72.2,68.1,29.94,NE,53,0.0,0.0,87,0.00,,,0.00,0,Wunderground v.1.15,2013-08-09 02:20:00,
2013-08-08 21:25:00,72.1,68.3,29.94,NE,53,0.0,0.0,88,0.00,,,0.00,0,Wunderground v.1.15,2013-08-09 02:25:00,
2013-08-08 21:35:00,71.9,68.5,29.94,NE,53,0.0,0.0,89,0.00,,,0.00,0,Wunderground v.1.15,2013-08-09 02:35:00,
2013-08-08 21:40:00,71.7,68.3,29.94,NE,53,0.0,0.0,89,0.00,,,0.00,0,Wunderground v.1.15,2013-08-09 02:40:00,
2013-08-08 21:55:00,71.4,68.0,29.95,NE,53,0.0,0.0,89,0.00,,,0.00,0,Wunderground v.1.15,2013-08-09 02:55:00,
2013-08-08 22:00:00,71.3,67.9,29.95,NE,53,0.0,0.0,89,0.00,,,0.00,0,Wunderground v.1.15,2013-08-09 03:00:00,
2013-08-08 22:05:00,71.2,68.1,29.95,NE,53,0.0,0.0,90,0.00,,,0.00,0,Wunderground v.1.15,2013-08-09 03:05:00,
2013-08-08 22:15:00,71.0,67.6,29.95,NE,53,0.0,0.0,89,0.00,,,0.00,0,Wunderground v.1.15,2013-08-09 03:15:00,
2013-08-08 22:20:00,70.9,67.5,29.95,NE,53,0.0,0.0,89,0.00,,,0.00,0,Wunderground v.1.15,2013-08-09 03:20:00,
2013-08-08 22:25:00,70.8,67.4,29.95,NE,53,0.0,0.0,89,0.00,,,0.00,0,Wunderground v.1.15,2013-08-09 03:25:00,
2013-08-08 22:30:00,70.7,67.3,29.95,NE,53,0.0,0.0,89,0.00,,,0.00,0,Wunderground v.1.15,2013-08-09 03:30:00,
2013-08-08 22:40:00,70.5,67.4,29.95,NE,53,0.0,0.0,90,0.00,,,0.00,0,Wunderground v.1.15,2013-08-09 03:40:00,
2013-08-08 22:50:00,70.3,66.9,29.95,NE,53,0.0,0.0,89,0.00,,,0.00,0,Wunderground v.1.15,2013-08-09 03:50:00,
2013-08-08 22:55:00,70.1,66.7,29.96,NE,53,0.0,0.0,89,0.00,,,0.00,0,Wunderground v.1.15,2013-08-09 03:55:00,
2013-08-08 23:00:00,70.1,67.0,29.96,NE,53,0.0,0.0,90,0.00,,,0.00,0,Wunderground v.1.15,2013-08-09 04:00:00,
2013-08-08 23:05:00,69.9,66.8,29.96,NE,53,0.0,0.0,90,0.00,,,0.00,0,Wunderground v.1.15,2013-08-09 04:05:00,
2013-08-08 23:10:00,69.8,67.1,29.95,NE,53,0.0,0.0,91,0.00,,,0.00,0,Wunderground v.1.15,2013-08-09 04:10:00,
2013-08-08 23:20:00,69.6,66.9,29.96,NE,53,0.0,0.0,91,0.00,,,0.00,0,Wunderground v.1.15,2013-08-09 04:20:00,
2013-08-08 23:25:00,69.5,66.8,29.96,NE,53,0.0,0.0,91,0.00,,,0.00,0,Wunderground v.1.15,2013-08-09 04:25:00,
2013-08-08 23:30:00,69.4,67.0,29.96,NE,53,0.0,0.0,92,0.00,,,0.00,0,Wunderground v.1.15,2013-08-09 04:30:00,
2013-08-08 23:35:00,69.4,67.0,29.97,NE,53,0.0,0.0,92,0.00,,,0.00,0,Wunderground v.1.15,2013-08-09 04:35:00,
2013-08-08 23:40:00,69.3,66.9,29.97,NE,53,0.0,0.0,92,0.00,,,0.00,0,Wunderground v.1.15,2013-08-09 04:40:00,
2013-08-08 23:45:00,69.3,66.9,29.97,NE,53,0.0,0.0,92,0.00,,,0.00,0,Wunderground v.1.15,2013-08-09 04:45:00,
2013-08-08 23:55:00,69.2,66.8,29.97,NE,53,0.0,0.0,92,0.00,,,0.00,0,Wunderground v.1.15,2013-08-09 04:55:00,